Charleston, Utah
Current Conditions -  °F | °C
As of 3:55 PM on Thursday 20 Nov 2014 (Local Time) from K36U Reporting Station
Broken Clouds Broken Clouds  
Wind Chill: 48°   Ceiling: 8500
Heat Index: 48°   Visibility: 10mi
Dew Point: 12°   Wind: 3mph
Humidity: 24%   Direction: 240°WSW
Pressure: 30.03"   Gusts: NA
Location:  40.2386°N, 111.149°W
Report Text: K36U 202255Z AUTO 24003KT 10SM BKN085 09/M11 A3003 RMK AO2
Loading
Personal Weather Stations






























Interactive Weather Map New forecast layout! Learn more

10-Day Weather Forecast

Advertisements
Track Severe Weather on mobile